Batteau, Canada
Current Conditions -  °F | °C
As of 2:00 PM on Thursday 18 Dec 2014 (Local Time) from CWCA Reporting Station
Broken Clouds Broken Clouds  
Wind Chill: 21°   Ceiling: 9000
Heat Index: 21°   Visibility: 15mi
Dew Point: 16°   Wind: 3mph
Humidity: 80%   Direction: 200°SSW
Pressure: 29.96"   Gusts: NA
Location:  53.4°N, 55.78°W
Report Text: CWCA 181800Z 20003KT 15SM BKN090 M06/M09 A2996 RMK AC7 SLP147
Loading
Personal Weather Stations






























Interactive Weather Map New forecast layout! Learn more

10-Day Weather Forecast

Advertisements
Track Severe Weather on mobile